sensor_id;sensor_type;location;lat;lon;timestamp;temperature;humidity
46231;DHT22;31949;51.404;-0.038;2022-11-04T00:02:07;9.20;99.90
46231;DHT22;31949;51.404;-0.038;2022-11-04T00:04:35;9.30;99.90
46231;DHT22;31949;51.404;-0.038;2022-11-04T00:07:02;9.20;99.90
46231;DHT22;31949;51.404;-0.038;2022-11-04T00:09:49;9.30;99.90
46231;DHT22;31949;51.404;-0.038;2022-11-04T00:12:16;9.30;99.90
46231;DHT22;31949;51.404;-0.038;2022-11-04T00:14:52;9.30;99.90
46231;DHT22;31949;51.404;-0.038;2022-11-04T00:17:20;9.30;99.90
46231;DHT22;31949;51.404;-0.038;2022-11-04T00:19:51;9.30;99.90
46231;DHT22;31949;51.404;-0.038;2022-11-04T00:22:39;9.30;99.90
46231;DHT22;31949;51.404;-0.038;2022-11-04T00:25:26;9.30;99.90
46231;DHT22;31949;51.404;-0.038;2022-11-04T00:28:14;9.30;99.90
46231;DHT22;31949;51.404;-0.038;2022-11-04T00:31:02;9.30;99.90
46231;DHT22;31949;51.404;-0.038;2022-11-04T00:33:51;9.30;99.90
46231;DHT22;31949;51.404;-0.038;2022-11-04T00:36:36;9.30;99.90
46231;DHT22;31949;51.404;-0.038;2022-11-04T00:39:07;9.40;99.90
46231;DHT22;31949;51.404;-0.038;2022-11-04T00:41:34;9.40;99.90
46231;DHT22;31949;51.404;-0.038;2022-11-04T00:44:45;9.30;99.90
46231;DHT22;31949;51.404;-0.038;2022-11-04T00:47:23;9.40;99.90
46231;DHT22;31949;51.404;-0.038;2022-11-04T00:49:50;9.40;99.90
46231;DHT22;31949;51.404;-0.038;2022-11-04T00:52:18;9.40;99.90
46231;DHT22;31949;51.404;-0.038;2022-11-04T00:54:45;9.40;99.90
46231;DHT22;31949;51.404;-0.038;2022-11-04T00:57:12;9.40;99.90
46231;DHT22;31949;51.404;-0.038;2022-11-04T00:59:40;9.50;99.90
46231;DHT22;31949;51.404;-0.038;2022-11-04T01:02:09;9.40;99.90
46231;DHT22;31949;51.404;-0.038;2022-11-04T01:07:58;9.40;99.90
46231;DHT22;31949;51.404;-0.038;2022-11-04T01:10:51;9.40;99.90
46231;DHT22;31949;51.404;-0.038;2022-11-04T01:13:18;9.40;99.90
46231;DHT22;31949;51.404;-0.038;2022-11-04T01:15:45;9.40;99.90
46231;DHT22;31949;51.404;-0.038;2022-11-04T01:18:13;9.40;99.90
46231;DHT22;31949;51.404;-0.038;2022-11-04T01:20:40;9.40;99.90
46231;DHT22;31949;51.404;-0.038;2022-11-04T01:23:07;9.40;99.90
46231;DHT22;31949;51.404;-0.038;2022-11-04T01:25:39;9.50;99.90
46231;DHT22;31949;51.404;-0.038;2022-11-04T01:28:13;9.40;99.90
46231;DHT22;31949;51.404;-0.038;2022-11-04T01:30:41;9.40;99.90
46231;DHT22;31949;51.404;-0.038;2022-11-04T01:33:08;9.40;99.90
46231;DHT22;31949;51.404;-0.038;2022-11-04T01:35:35;9.50;99.90
46231;DHT22;31949;51.404;-0.038;2022-11-04T01:38:03;9.40;99.90
46231;DHT22;31949;51.404;-0.038;2022-11-04T01:40:35;9.40;99.90
46231;DHT22;31949;51.404;-0.038;2022-11-04T01:43:03;9.40;99.90
46231;DHT22;31949;51.404;-0.038;2022-11-04T01:45:32;9.40;99.90
46231;DHT22;31949;51.404;-0.038;2022-11-04T01:48:05;9.40;99.90
46231;DHT22;31949;51.404;-0.038;2022-11-04T01:50:35;9.40;99.90
46231;DHT22;31949;51.404;-0.038;2022-11-04T01:53:11;9.50;99.90
46231;DHT22;31949;51.404;-0.038;2022-11-04T01:55:44;9.50;99.90
46231;DHT22;31949;51.404;-0.038;2022-11-04T01:58:14;9.50;99.90
46231;DHT22;31949;51.404;-0.038;2022-11-04T02:00:42;9.50;99.90
46231;DHT22;31949;51.404;-0.038;2022-11-04T02:03:22;9.50;99.90
46231;DHT22;31949;51.404;-0.038;2022-11-04T02:05:51;9.50;99.90
46231;DHT22;31949;51.404;-0.038;2022-11-04T02:08:19;9.40;99.90
46231;DHT22;31949;51.404;-0.038;2022-11-04T02:10:55;9.40;99.90
46231;DHT22;31949;51.404;-0.038;2022-11-04T02:13:24;9.40;99.90
46231;DHT22;31949;51.404;-0.038;2022-11-04T02:15:55;9.40;99.90
46231;DHT22;31949;51.404;-0.038;2022-11-04T02:18:53;9.40;99.90
46231;DHT22;31949;51.404;-0.038;2022-11-04T02:30:12;9.40;99.90
46231;DHT22;31949;51.404;-0.038;2022-11-04T02:33:01;9.40;99.90
46231;DHT22;31949;51.404;-0.038;2022-11-04T02:49:16;9.40;99.90
46231;DHT22;31949;51.404;-0.038;2022-11-04T02:51:52;9.40;99.90
46231;DHT22;31949;51.404;-0.038;2022-11-04T02:54:47;9.50;99.90
46231;DHT22;31949;51.404;-0.038;2022-11-04T02:57:25;9.50;99.90
46231;DHT22;31949;51.404;-0.038;2022-11-04T03:00:01;9.50;99.90
46231;DHT22;31949;51.404;-0.038;2022-11-04T03:02:37;9.50;99.90
46231;DHT22;31949;51.404;-0.038;2022-11-04T03:05:09;9.50;99.90
46231;DHT22;31949;51.404;-0.038;2022-11-04T03:07:40;9.50;99.90
46231;DHT22;31949;51.404;-0.038;2022-11-04T03:10:15;9.50;99.90
46231;DHT22;31949;51.404;-0.038;2022-11-04T03:12:54;9.50;99.90
46231;DHT22;31949;51.404;-0.038;2022-11-04T03:15:30;9.50;99.90
46231;DHT22;31949;51.404;-0.038;2022-11-04T03:20:45;9.40;99.90
46231;DHT22;31949;51.404;-0.038;2022-11-04T03:23:14;9.40;99.90
46231;DHT22;31949;51.404;-0.038;2022-11-04T03:25:47;9.40;99.90
46231;DHT22;31949;51.404;-0.038;2022-11-04T03:28:26;9.30;99.90
46231;DHT22;31949;51.404;-0.038;2022-11-04T03:31:00;9.30;99.90
46231;DHT22;31949;51.404;-0.038;2022-11-04T03:33:46;9.30;99.90
46231;DHT22;31949;51.404;-0.038;2022-11-04T03:36:14;9.20;99.90
46231;DHT22;31949;51.404;-0.038;2022-11-04T03:38:42;9.30;99.90
46231;DHT22;31949;51.404;-0.038;2022-11-04T03:41:36;9.20;99.90
46231;DHT22;31949;51.404;-0.038;2022-11-04T03:44:04;9.20;99.90
46231;DHT22;31949;51.404;-0.038;2022-11-04T03:46:31;9.20;99.90
46231;DHT22;31949;51.404;-0.038;2022-11-04T03:49:00;9.20;99.90
46231;DHT22;31949;51.404;-0.038;2022-11-04T03:51:27;9.20;99.90
46231;DHT22;31949;51.404;-0.038;2022-11-04T03:53:55;9.20;99.90
46231;DHT22;31949;51.404;-0.038;2022-11-04T04:01:58;9.00;99.90
46231;DHT22;31949;51.404;-0.038;2022-11-04T04:04:31;9.10;99.90
46231;DHT22;31949;51.404;-0.038;2022-11-04T04:07:12;9.00;99.90
46231;DHT22;31949;51.404;-0.038;2022-11-04T04:10:24;9.00;99.90
46231;DHT22;31949;51.404;-0.038;2022-11-04T04:13:18;8.90;99.90
46231;DHT22;31949;51.404;-0.038;2022-11-04T04:16:14;8.90;99.90
46231;DHT22;31949;51.404;-0.038;2022-11-04T04:19:03;8.90;99.90
46231;DHT22;31949;51.404;-0.038;2022-11-04T04:21:36;8.90;99.90
46231;DHT22;31949;51.404;-0.038;2022-11-04T04:24:07;8.90;99.90
46231;DHT22;31949;51.404;-0.038;2022-11-04T04:26:54;8.90;99.90
46231;DHT22;31949;51.404;-0.038;2022-11-04T04:29:43;8.80;99.90
46231;DHT22;31949;51.404;-0.038;2022-11-04T04:32:12;8.80;99.90
46231;DHT22;31949;51.404;-0.038;2022-11-04T04:34:39;8.80;99.90
46231;DHT22;31949;51.404;-0.038;2022-11-04T04:39:51;8.70;99.90
46231;DHT22;31949;51.404;-0.038;2022-11-04T04:42:38;8.70;99.90
46231;DHT22;31949;51.404;-0.038;2022-11-04T04:45:35;8.80;99.90
46231;DHT22;31949;51.404;-0.038;2022-11-04T04:48:04;8.80;99.90
46231;DHT22;31949;51.404;-0.038;2022-11-04T04:50:43;8.70;99.90
46231;DHT22;31949;51.404;-0.038;2022-11-04T04:53:11;8.70;99.90
46231;DHT22;31949;51.404;-0.038;2022-11-04T04:55:38;8.70;99.90
46231;DHT22;31949;51.404;-0.038;2022-11-04T04:58:08;8.70;99.90
46231;DHT22;31949;51.404;-0.038;2022-11-04T05:00:35;8.70;99.90
46231;DHT22;31949;51.404;-0.038;2022-11-04T05:03:02;8.70;99.90
46231;DHT22;31949;51.404;-0.038;2022-11-04T05:05:29;8.60;99.90
46231;DHT22;31949;51.404;-0.038;2022-11-04T05:08:06;8.60;99.90
46231;DHT22;31949;51.404;-0.038;2022-11-04T05:10:34;8.50;99.90
46231;DHT22;31949;51.404;-0.038;2022-11-04T05:13:01;8.50;99.90
46231;DHT22;31949;51.404;-0.038;2022-11-04T05:15:47;8.40;99.90
46231;DHT22;31949;51.404;-0.038;2022-11-04T05:18:14;8.40;99.90
46231;DHT22;31949;51.404;-0.038;2022-11-04T05:20:42;8.30;99.90
46231;DHT22;31949;51.404;-0.038;2022-11-04T05:23:09;8.30;99.90
46231;DHT22;31949;51.404;-0.038;2022-11-04T05:25:39;8.40;99.90
46231;DHT22;31949;51.404;-0.038;2022-11-04T05:28:07;8.30;99.90
46231;DHT22;31949;51.404;-0.038;2022-11-04T05:30:35;8.30;99.90
46231;DHT22;31949;51.404;-0.038;2022-11-04T05:33:02;8.30;99.90
46231;DHT22;31949;51.404;-0.038;2022-11-04T05:35:32;8.20;99.90
46231;DHT22;31949;51.404;-0.038;2022-11-04T05:37:59;8.20;99.90
46231;DHT22;31949;51.404;-0.038;2022-11-04T05:40:26;8.20;99.90
46231;DHT22;31949;51.404;-0.038;2022-11-04T05:42:57;8.20;99.90
46231;DHT22;31949;51.404;-0.038;2022-11-04T05:45:25;8.20;99.90
46231;DHT22;31949;51.404;-0.038;2022-11-04T05:48:00;8.20;99.90
46231;DHT22;31949;51.404;-0.038;2022-11-04T05:50:28;8.10;99.90
46231;DHT22;31949;51.404;-0.038;2022-11-04T05:52:59;8.10;99.90
46231;DHT22;31949;51.404;-0.038;2022-11-04T05:55:27;8.10;99.90
46231;DHT22;31949;51.404;-0.038;2022-11-04T05:57:54;8.10;99.90
46231;DHT22;31949;51.404;-0.038;2022-11-04T06:00:25;8.10;99.90
46231;DHT22;31949;51.404;-0.038;2022-11-04T06:02:54;8.10;99.90
46231;DHT22;31949;51.404;-0.038;2022-11-04T06:05:25;8.10;99.90
46231;DHT22;31949;51.404;-0.038;2022-11-04T06:07:54;8.10;99.90
46231;DHT22;31949;51.404;-0.038;2022-11-04T06:10:22;8.10;99.90
46231;DHT22;31949;51.404;-0.038;2022-11-04T06:12:49;8.10;99.90
46231;DHT22;31949;51.404;-0.038;2022-11-04T06:15:16;8.10;99.90
46231;DHT22;31949;51.404;-0.038;2022-11-04T06:17:43;8.10;99.90
46231;DHT22;31949;51.404;-0.038;2022-11-04T06:20:11;8.00;99.90
46231;DHT22;31949;51.404;-0.038;2022-11-04T06:22:38;8.00;99.90
46231;DHT22;31949;51.404;-0.038;2022-11-04T06:25:05;8.00;99.90
46231;DHT22;31949;51.404;-0.038;2022-11-04T06:27:32;8.00;99.90
46231;DHT22;31949;51.404;-0.038;2022-11-04T06:29:59;7.90;99.90
46231;DHT22;31949;51.404;-0.038;2022-11-04T06:32:26;7.90;99.90
46231;DHT22;31949;51.404;-0.038;2022-11-04T06:34:53;7.90;99.90
46231;DHT22;31949;51.404;-0.038;2022-11-04T06:37:21;7.90;99.90
46231;DHT22;31949;51.404;-0.038;2022-11-04T06:39:48;7.80;99.90
46231;DHT22;31949;51.404;-0.038;2022-11-04T06:42:15;7.80;99.90
46231;DHT22;31949;51.404;-0.038;2022-11-04T06:44:42;7.80;99.90
46231;DHT22;31949;51.404;-0.038;2022-11-04T06:47:09;7.80;99.90
46231;DHT22;31949;51.404;-0.038;2022-11-04T06:49:36;7.80;99.90
46231;DHT22;31949;51.404;-0.038;2022-11-04T06:52:04;7.70;99.90
46231;DHT22;31949;51.404;-0.038;2022-11-04T06:54:31;7.70;99.90
46231;DHT22;31949;51.404;-0.038;2022-11-04T06:56:58;7.70;99.90
46231;DHT22;31949;51.404;-0.038;2022-11-04T06:59:25;7.70;99.90
46231;DHT22;31949;51.404;-0.038;2022-11-04T07:01:52;7.70;99.90
46231;DHT22;31949;51.404;-0.038;2022-11-04T07:04:19;7.70;99.90
46231;DHT22;31949;51.404;-0.038;2022-11-04T07:06:47;7.60;99.90
46231;DHT22;31949;51.404;-0.038;2022-11-04T07:09:15;7.60;99.90
46231;DHT22;31949;51.404;-0.038;2022-11-04T07:11:43;7.60;99.90
46231;DHT22;31949;51.404;-0.038;2022-11-04T07:14:11;7.60;99.90
46231;DHT22;31949;51.404;-0.038;2022-11-04T07:16:39;7.60;99.90
46231;DHT22;31949;51.404;-0.038;2022-11-04T07:19:06;7.60;99.90
46231;DHT22;31949;51.404;-0.038;2022-11-04T07:21:33;7.50;99.90
46231;DHT22;31949;51.404;-0.038;2022-11-04T07:24:01;7.50;99.90
46231;DHT22;31949;51.404;-0.038;2022-11-04T07:26:28;7.50;99.90
46231;DHT22;31949;51.404;-0.038;2022-11-04T07:28:55;7.50;99.90
46231;DHT22;31949;51.404;-0.038;2022-11-04T07:31:23;7.50;99.90
46231;DHT22;31949;51.404;-0.038;2022-11-04T07:33:52;7.50;99.90
46231;DHT22;31949;51.404;-0.038;2022-11-04T07:36:19;7.40;99.90
46231;DHT22;31949;51.404;-0.038;2022-11-04T07:38:47;7.50;99.90
46231;DHT22;31949;51.404;-0.038;2022-11-04T07:41:15;7.40;99.90
46231;DHT22;31949;51.404;-0.038;2022-11-04T07:43:46;7.40;99.90
46231;DHT22;31949;51.404;-0.038;2022-11-04T07:46:13;7.40;99.90
46231;DHT22;31949;51.404;-0.038;2022-11-04T07:48:40;7.50;99.90
46231;DHT22;31949;51.404;-0.038;2022-11-04T07:51:11;7.50;99.90
46231;DHT22;31949;51.404;-0.038;2022-11-04T07:53:38;7.50;99.90
46231;DHT22;31949;51.404;-0.038;2022-11-04T07:56:07;7.50;99.90
46231;DHT22;31949;51.404;-0.038;2022-11-04T07:58:37;7.60;99.90
46231;DHT22;31949;51.404;-0.038;2022-11-04T08:01:11;7.60;99.90
46231;DHT22;31949;51.404;-0.038;2022-11-04T08:03:38;7.60;99.90
46231;DHT22;31949;51.404;-0.038;2022-11-04T08:06:07;7.70;99.90
46231;DHT22;31949;51.404;-0.038;2022-11-04T08:08:35;7.80;99.90
46231;DHT22;31949;51.404;-0.038;2022-11-04T08:11:09;7.80;99.90
46231;DHT22;31949;51.404;-0.038;2022-11-04T08:13:43;7.80;99.90
46231;DHT22;31949;51.404;-0.038;2022-11-04T08:16:13;7.90;99.90
46231;DHT22;31949;51.404;-0.038;2022-11-04T08:18:41;7.90;99.90
46231;DHT22;31949;51.404;-0.038;2022-11-04T08:21:10;7.90;99.90
46231;DHT22;31949;51.404;-0.038;2022-11-04T08:23:37;8.00;99.90
46231;DHT22;31949;51.404;-0.038;2022-11-04T08:26:12;8.00;99.90
46231;DHT22;31949;51.404;-0.038;2022-11-04T08:28:40;8.10;99.90
46231;DHT22;31949;51.404;-0.038;2022-11-04T08:31:14;8.10;99.90
46231;DHT22;31949;51.404;-0.038;2022-11-04T08:33:41;8.10;99.90
46231;DHT22;31949;51.404;-0.038;2022-11-04T08:36:28;8.20;99.90
46231;DHT22;31949;51.404;-0.038;2022-11-04T08:38:56;8.30;99.90
46231;DHT22;31949;51.404;-0.038;2022-11-04T08:41:26;8.40;99.90
46231;DHT22;31949;51.404;-0.038;2022-11-04T08:43:55;8.40;99.90
46231;DHT22;31949;51.404;-0.038;2022-11-04T08:46:33;8.50;99.90
46231;DHT22;31949;51.404;-0.038;2022-11-04T08:49:00;8.50;99.90
46231;DHT22;31949;51.404;-0.038;2022-11-04T08:51:37;8.60;99.90
46231;DHT22;31949;51.404;-0.038;2022-11-04T08:54:05;8.70;99.90
46231;DHT22;31949;51.404;-0.038;2022-11-04T08:56:38;8.80;99.90
46231;DHT22;31949;51.404;-0.038;2022-11-04T08:59:06;8.80;99.90
46231;DHT22;31949;51.404;-0.038;2022-11-04T09:01:35;8.90;99.90
46231;DHT22;31949;51.404;-0.038;2022-11-04T09:04:05;9.00;99.90
46231;DHT22;31949;51.404;-0.038;2022-11-04T09:06:36;9.00;99.90
46231;DHT22;31949;51.404;-0.038;2022-11-04T09:09:05;9.10;99.90
46231;DHT22;31949;51.404;-0.038;2022-11-04T09:11:37;9.10;99.90
46231;DHT22;31949;51.404;-0.038;2022-11-04T09:14:04;9.20;99.90
46231;DHT22;31949;51.404;-0.038;2022-11-04T09:16:33;9.20;99.90
46231;DHT22;31949;51.404;-0.038;2022-11-04T09:19:01;9.30;99.90
46231;DHT22;31949;51.404;-0.038;2022-11-04T09:21:29;9.30;99.90
46231;DHT22;31949;51.404;-0.038;2022-11-04T09:23:56;9.40;99.90
46231;DHT22;31949;51.404;-0.038;2022-11-04T09:26:24;9.40;99.90
46231;DHT22;31949;51.404;-0.038;2022-11-04T09:28:56;9.50;99.90
46231;DHT22;31949;51.404;-0.038;2022-11-04T09:31:26;9.50;99.90
46231;DHT22;31949;51.404;-0.038;2022-11-04T09:33:54;9.50;99.90
46231;DHT22;31949;51.404;-0.038;2022-11-04T09:36:22;9.60;99.90
46231;DHT22;31949;51.404;-0.038;2022-11-04T09:38:49;9.60;99.90
46231;DHT22;31949;51.404;-0.038;2022-11-04T09:46:31;9.70;99.90
46231;DHT22;31949;51.404;-0.038;2022-11-04T09:49:01;9.70;99.90
46231;DHT22;31949;51.404;-0.038;2022-11-04T09:51:29;9.80;99.90
46231;DHT22;31949;51.404;-0.038;2022-11-04T09:54:35;9.90;99.90
46231;DHT22;31949;51.404;-0.038;2022-11-04T09:57:18;9.90;99.90
46231;DHT22;31949;51.404;-0.038;2022-11-04T09:59:46;10.00;99.90
46231;DHT22;31949;51.404;-0.038;2022-11-04T10:08:09;10.20;99.90
46231;DHT22;31949;51.404;-0.038;2022-11-04T10:11:01;10.20;99.90
46231;DHT22;31949;51.404;-0.038;2022-11-04T10:22:15;10.40;99.90
46231;DHT22;31949;51.404;-0.038;2022-11-04T10:27:27;10.60;99.90
46231;DHT22;31949;51.404;-0.038;2022-11-04T10:33:24;10.60;99.90
46231;DHT22;31949;51.404;-0.038;2022-11-04T10:36:00;10.70;99.90
46231;DHT22;31949;51.404;-0.038;2022-11-04T10:40:59;10.80;99.90
46231;DHT22;31949;51.404;-0.038;2022-11-04T10:43:37;10.80;99.90
46231;DHT22;31949;51.404;-0.038;2022-11-04T10:46:17;10.90;99.90
46231;DHT22;31949;51.404;-0.038;2022-11-04T10:51:53;10.90;99.90
46231;DHT22;31949;51.404;-0.038;2022-11-04T10:54:23;11.00;99.90
46231;DHT22;31949;51.404;-0.038;2022-11-04T10:56:53;11.00;99.90
46231;DHT22;31949;51.404;-0.038;2022-11-04T10:59:28;11.00;99.90
46231;DHT22;31949;51.404;-0.038;2022-11-04T11:02:00;11.00;99.90
46231;DHT22;31949;51.404;-0.038;2022-11-04T11:04:33;11.10;99.90
46231;DHT22;31949;51.404;-0.038;2022-11-04T11:07:06;11.20;99.90
46231;DHT22;31949;51.404;-0.038;2022-11-04T11:09:47;11.20;99.90
46231;DHT22;31949;51.404;-0.038;2022-11-04T11:12:24;11.30;99.90
46231;DHT22;31949;51.404;-0.038;2022-11-04T11:15:31;11.30;99.90
46231;DHT22;31949;51.404;-0.038;2022-11-04T11:20:35;11.40;99.90
46231;DHT22;31949;51.404;-0.038;2022-11-04T11:23:04;11.40;99.90
46231;DHT22;31949;51.404;-0.038;2022-11-04T11:25:38;11.40;99.90
46231;DHT22;31949;51.404;-0.038;2022-11-04T11:28:21;11.40;99.90
46231;DHT22;31949;51.404;-0.038;2022-11-04T11:30:58;11.40;99.90
46231;DHT22;31949;51.404;-0.038;2022-11-04T11:36:07;11.50;99.90
46231;DHT22;31949;51.404;-0.038;2022-11-04T11:38:50;11.50;99.90
46231;DHT22;31949;51.404;-0.038;2022-11-04T11:41:18;11.50;99.90
46231;DHT22;31949;51.404;-0.038;2022-11-04T11:43:52;11.60;99.90
46231;DHT22;31949;51.404;-0.038;2022-11-04T11:46:25;11.60;99.90
46231;DHT22;31949;51.404;-0.038;2022-11-04T11:48:58;11.70;99.90
46231;DHT22;31949;51.404;-0.038;2022-11-04T11:51:41;11.70;99.90
46231;DHT22;31949;51.404;-0.038;2022-11-04T11:54:32;11.70;99.90
46231;DHT22;31949;51.404;-0.038;2022-11-04T12:00:13;11.70;99.90
46231;DHT22;31949;51.404;-0.038;2022-11-04T12:05:46;11.80;99.90
46231;DHT22;31949;51.404;-0.038;2022-11-04T12:14:39;11.90;99.90
46231;DHT22;31949;51.404;-0.038;2022-11-04T12:17:28;11.90;99.90
46231;DHT22;31949;51.404;-0.038;2022-11-04T12:26:12;12.10;99.90
46231;DHT22;31949;51.404;-0.038;2022-11-04T12:28:58;12.10;99.90
46231;DHT22;31949;51.404;-0.038;2022-11-04T12:47:45;12.30;99.90
46231;DHT22;31949;51.404;-0.038;2022-11-04T12:53:09;12.40;99.90
46231;DHT22;31949;51.404;-0.038;2022-11-04T12:55:45;12.30;99.90
46231;DHT22;31949;51.404;-0.038;2022-11-04T13:00:58;12.50;99.90
46231;DHT22;31949;51.404;-0.038;2022-11-04T13:03:57;12.50;99.90
46231;DHT22;31949;51.404;-0.038;2022-11-04T13:06:32;12.50;99.90
46231;DHT22;31949;51.404;-0.038;2022-11-04T13:09:15;12.50;99.90
46231;DHT22;31949;51.404;-0.038;2022-11-04T13:11:51;12.50;99.90
46231;DHT22;31949;51.404;-0.038;2022-11-04T13:14:25;12.50;99.90
46231;DHT22;31949;51.404;-0.038;2022-11-04T13:17:04;12.60;99.90
46231;DHT22;31949;51.404;-0.038;2022-11-04T13:19:44;12.60;99.90
46231;DHT22;31949;51.404;-0.038;2022-11-04T13:22:21;12.60;99.90
46231;DHT22;31949;51.404;-0.038;2022-11-04T13:24:59;12.60;99.90
46231;DHT22;31949;51.404;-0.038;2022-11-04T13:27:34;12.60;99.90
46231;DHT22;31949;51.404;-0.038;2022-11-04T13:36:00;12.70;99.90
46231;DHT22;31949;51.404;-0.038;2022-11-04T13:38:39;12.60;99.90
46231;DHT22;31949;51.404;-0.038;2022-11-04T13:41:29;12.60;99.90
46231;DHT22;31949;51.404;-0.038;2022-11-04T13:44:03;12.70;99.90
46231;DHT22;31949;51.404;-0.038;2022-11-04T13:46:32;12.70;99.90
46231;DHT22;31949;51.404;-0.038;2022-11-04T13:51:39;12.70;99.90
46231;DHT22;31949;51.404;-0.038;2022-11-04T13:57:26;12.70;99.90
46231;DHT22;31949;51.404;-0.038;2022-11-04T14:18:52;12.70;99.90
46231;DHT22;31949;51.404;-0.038;2022-11-04T14:21:25;12.70;99.90
46231;DHT22;31949;51.404;-0.038;2022-11-04T14:23:59;12.70;99.90
46231;DHT22;31949;51.404;-0.038;2022-11-04T14:26:45;12.70;99.90
46231;DHT22;31949;51.404;-0.038;2022-11-04T14:29:23;12.70;99.90
46231;DHT22;31949;51.404;-0.038;2022-11-04T14:31:57;12.70;99.90
46231;DHT22;31949;51.404;-0.038;2022-11-04T14:34:27;12.70;99.90
46231;DHT22;31949;51.404;-0.038;2022-11-04T14:37:14;12.70;99.90
46231;DHT22;31949;51.404;-0.038;2022-11-04T14:39:44;12.60;99.90
46231;DHT22;31949;51.404;-0.038;2022-11-04T14:42:49;12.50;99.90
46231;DHT22;31949;51.404;-0.038;2022-11-04T14:45:22;12.40;99.90
46231;DHT22;31949;51.404;-0.038;2022-11-04T14:48:09;12.40;99.90
46231;DHT22;31949;51.404;-0.038;2022-11-04T14:50:45;12.30;99.90
46231;DHT22;31949;51.404;-0.038;2022-11-04T14:53:35;12.30;99.90
46231;DHT22;31949;51.404;-0.038;2022-11-04T14:56:09;12.30;99.90
46231;DHT22;31949;51.404;-0.038;2022-11-04T14:58:38;12.30;99.90
46231;DHT22;31949;51.404;-0.038;2022-11-04T15:01:05;12.30;99.90
46231;DHT22;31949;51.404;-0.038;2022-11-04T15:03:36;12.30;99.90
46231;DHT22;31949;51.404;-0.038;2022-11-04T15:06:33;12.30;99.90
46231;DHT22;31949;51.404;-0.038;2022-11-04T15:09:26;12.30;99.90
46231;DHT22;31949;51.404;-0.038;2022-11-04T15:12:20;12.30;99.90
46231;DHT22;31949;51.404;-0.038;2022-11-04T15:18:03;12.20;99.90
46231;DHT22;31949;51.404;-0.038;2022-11-04T15:20:36;12.20;99.90
46231;DHT22;31949;51.404;-0.038;2022-11-04T15:23:11;12.20;99.90
46231;DHT22;31949;51.404;-0.038;2022-11-04T15:25:47;12.20;99.90
46231;DHT22;31949;51.404;-0.038;2022-11-04T15:28:33;12.20;99.90
46231;DHT22;31949;51.404;-0.038;2022-11-04T15:33:41;12.20;99.90
46231;DHT22;31949;51.404;-0.038;2022-11-04T15:36:27;12.20;99.90
46231;DHT22;31949;51.404;-0.038;2022-11-04T15:39:06;12.20;99.90
46231;DHT22;31949;51.404;-0.038;2022-11-04T15:41:38;12.20;99.90
46231;DHT22;31949;51.404;-0.038;2022-11-04T15:44:27;12.10;99.90
46231;DHT22;31949;51.404;-0.038;2022-11-04T15:47:00;12.10;99.90
46231;DHT22;31949;51.404;-0.038;2022-11-04T15:49:31;12.00;99.90
46231;DHT22;31949;51.404;-0.038;2022-11-04T15:52:00;11.90;99.90
46231;DHT22;31949;51.404;-0.038;2022-11-04T15:54:34;11.80;99.90
46231;DHT22;31949;51.404;-0.038;2022-11-04T15:57:16;11.70;99.90
46231;DHT22;31949;51.404;-0.038;2022-11-04T15:59:58;11.70;99.90
46231;DHT22;31949;51.404;-0.038;2022-11-04T16:02:59;11.70;99.90
46231;DHT22;31949;51.404;-0.038;2022-11-04T16:05:33;11.60;99.90
46231;DHT22;31949;51.404;-0.038;2022-11-04T16:08:23;11.50;99.90
46231;DHT22;31949;51.404;-0.038;2022-11-04T16:11:16;11.40;99.90
46231;DHT22;31949;51.404;-0.038;2022-11-04T16:13:44;11.40;99.90
46231;DHT22;31949;51.404;-0.038;2022-11-04T16:16:25;11.30;99.90
46231;DHT22;31949;51.404;-0.038;2022-11-04T16:18:56;11.20;99.90
46231;DHT22;31949;51.404;-0.038;2022-11-04T16:21:36;11.30;99.90
46231;DHT22;31949;51.404;-0.038;2022-11-04T16:24:33;11.30;99.90
46231;DHT22;31949;51.404;-0.038;2022-11-04T16:27:02;11.30;99.90
46231;DHT22;31949;51.404;-0.038;2022-11-04T16:29:35;11.30;99.90
46231;DHT22;31949;51.404;-0.038;2022-11-04T16:32:29;11.30;99.90
46231;DHT22;31949;51.404;-0.038;2022-11-04T16:35:04;11.20;99.90
46231;DHT22;31949;51.404;-0.038;2022-11-04T16:37:32;11.20;99.90
46231;DHT22;31949;51.404;-0.038;2022-11-04T16:40:00;11.20;99.90
46231;DHT22;31949;51.404;-0.038;2022-11-04T16:42:30;11.20;99.90
46231;DHT22;31949;51.404;-0.038;2022-11-04T16:45:06;11.30;99.90
46231;DHT22;31949;51.404;-0.038;2022-11-04T16:47:39;11.30;99.90
46231;DHT22;31949;51.404;-0.038;2022-11-04T16:50:13;11.40;99.90
46231;DHT22;31949;51.404;-0.038;2022-11-04T16:52:42;11.30;99.90
46231;DHT22;31949;51.404;-0.038;2022-11-04T16:55:11;11.30;99.90
46231;DHT22;31949;51.404;-0.038;2022-11-04T16:57:43;11.30;99.90
46231;DHT22;31949;51.404;-0.038;2022-11-04T17:00:20;11.30;99.90
46231;DHT22;31949;51.404;-0.038;2022-11-04T17:02:48;11.30;99.90
46231;DHT22;31949;51.404;-0.038;2022-11-04T17:05:17;11.30;99.90
46231;DHT22;31949;51.404;-0.038;2022-11-04T17:07:44;11.30;99.90
46231;DHT22;31949;51.404;-0.038;2022-11-04T17:10:23;11.30;99.90
46231;DHT22;31949;51.404;-0.038;2022-11-04T17:12:50;11.30;99.90
46231;DHT22;31949;51.404;-0.038;2022-11-04T17:15:18;11.30;99.90
46231;DHT22;31949;51.404;-0.038;2022-11-04T17:17:45;11.30;99.90
46231;DHT22;31949;51.404;-0.038;2022-11-04T17:20:14;11.30;99.90
46231;DHT22;31949;51.404;-0.038;2022-11-04T17:22:44;11.30;99.90
46231;DHT22;31949;51.404;-0.038;2022-11-04T17:25:19;11.30;99.90
46231;DHT22;31949;51.404;-0.038;2022-11-04T17:27:47;11.20;99.90
46231;DHT22;31949;51.404;-0.038;2022-11-04T17:30:15;11.20;99.90
46231;DHT22;31949;51.404;-0.038;2022-11-04T17:32:45;11.30;99.90
46231;DHT22;31949;51.404;-0.038;2022-11-04T17:35:18;11.30;99.90
46231;DHT22;31949;51.404;-0.038;2022-11-04T17:37:46;11.30;99.90
46231;DHT22;31949;51.404;-0.038;2022-11-04T17:40:16;11.30;99.90
46231;DHT22;31949;51.404;-0.038;2022-11-04T17:42:44;11.30;99.90
46231;DHT22;31949;51.404;-0.038;2022-11-04T17:45:37;11.30;99.90
46231;DHT22;31949;51.404;-0.038;2022-11-04T17:48:05;11.20;99.90
46231;DHT22;31949;51.404;-0.038;2022-11-04T17:50:33;11.20;99.90
46231;DHT22;31949;51.404;-0.038;2022-11-04T17:53:00;11.20;99.90
46231;DHT22;31949;51.404;-0.038;2022-11-04T17:55:27;11.20;99.90
46231;DHT22;31949;51.404;-0.038;2022-11-04T17:57:54;11.10;99.90
46231;DHT22;31949;51.404;-0.038;2022-11-04T18:00:22;11.10;99.90
46231;DHT22;31949;51.404;-0.038;2022-11-04T18:02:56;11.10;99.90
46231;DHT22;31949;51.404;-0.038;2022-11-04T18:05:23;11.00;99.90
46231;DHT22;31949;51.404;-0.038;2022-11-04T18:07:50;11.00;99.90
46231;DHT22;31949;51.404;-0.038;2022-11-04T18:10:19;10.90;99.90
46231;DHT22;31949;51.404;-0.038;2022-11-04T18:12:46;10.90;99.90
46231;DHT22;31949;51.404;-0.038;2022-11-04T18:15:14;10.80;99.90
46231;DHT22;31949;51.404;-0.038;2022-11-04T18:17:45;10.80;99.90
46231;DHT22;31949;51.404;-0.038;2022-11-04T18:20:13;10.70;99.90
46231;DHT22;31949;51.404;-0.038;2022-11-04T18:22:41;10.70;99.90
46231;DHT22;31949;51.404;-0.038;2022-11-04T18:25:10;10.60;99.90
46231;DHT22;31949;51.404;-0.038;2022-11-04T18:27:37;10.50;99.90
46231;DHT22;31949;51.404;-0.038;2022-11-04T18:30:06;10.50;99.90
46231;DHT22;31949;51.404;-0.038;2022-11-04T18:32:43;10.50;99.90
46231;DHT22;31949;51.404;-0.038;2022-11-04T18:35:11;10.40;99.90